Overview Statistics Trail Chart Weather Telemetry Raw packets
 

This is the latest recevied weather packets stored in our database for station/object SALIDA. If no packets are shown the sender has not sent any weather packets the latest 10 day(s).

<< 1 2 3 4 5 6 7 >>
Time Temp. Humidity Pressure Rain* Wind** Luminosity Snow
1788506823 15° C 45% 1003.2 hPa 0 mm - - -
1788505923 16.11° C 44% 1003.3 hPa 0 mm - - -
1788505023 17.22° C 41% 1003.3 hPa 0 mm - - -
1788504123 18.89° C 38% 1003.2 hPa 0 mm - - -
1788503223 19.44° C 34% 1003.1 hPa 0 mm - - -
1788502323 18.89° C 36% 1003 hPa 0 mm - - -
1788501423 18.33° C 39% 1002.8 hPa 0 mm - - -
1788500523 18.89° C 38% 1002.8 hPa 0 mm - - -
1788499623 18.89° C 38% 1002.8 hPa 0 mm - - -
1788498723 18.89° C 38% 1002.6 hPa 0 mm - - -
1788497823 19.44° C 36% 1002.6 hPa 0 mm - - -
1788496923 20° C 35% 1002.5 hPa 0 mm - - -
1788496023 20.56° C 33% 1002.6 hPa 0 mm - - -
1788495123 21.11° C 32% 1002.7 hPa 0 mm - - -
1788494223 22.22° C 30% 1002.6 hPa 0 mm - - -
1788493323 23.33° C 28% 1002.4 hPa 0 mm - - -
1788492423 23.33° C 27% 1001.9 hPa 0 mm - - -
1788491523 23.89° C 26% 1001.5 hPa 0 mm - - -
1788490623 24.44° C 25% 1001 hPa 0 mm - - -
1788489723 24.44° C 26% 1000.9 hPa 0 mm - - -
1788488824 24.44° C 27% 1000.5 hPa 0 mm - - -
1788487924 25° C 27% 1000.2 hPa 0 mm - - -
1788487024 25° C 26% 999.8 hPa 0 mm - - -
1788486124 25.56° C 26% 999.7 hPa 0 mm - - -
1788485224 25.56° C 26% 999.6 hPa 0 mm - - -

* Rain latest hour (hover to see other rain measurements)
** Current wind speed in m/s (hover to see current wind gust speed)